Aérodrome :
LOGIN :

S'inscrire | Disclaimer

   EN    FR    IT 

 










Légende :    VFR   VFR Marginal   IFR   IFR Intensif   IFR Très Intensif
Visi : 
Plafond : 
>= 8 km
>= 3000ft
5 à 8 km
1000 à 3000 ft
1500m à 5 km
500 à 1000 ft
800 à 1500m
200 à 500 ft
< 800m
< 200 ft
Symboles :   Orages  Brouillard  Fortes neiges  Fortes précipitations  Vent > 20 kt
SIGMETs :   Divers  Orages  Givrage  Turbulence  Onde Orograph.  Cendres Volcan.






- Altitude de l'aérodrome : 1470 ft


LSMD - Dubendorf Military

DERNIER METAR :
  • 110920Z 30001KT 9999 NSC M00/M03 Q1015 RMK BLU+

METARs EXPIRÉS :
  • 110850Z 00000KT 9999 NSC M01/M03 Q1015 RMK BLU+
  • 110820Z VRB02KT CAVOK M02/M04 Q1016 RMK BLU
  • 110750Z 00000KT CAVOK M02/M04 Q1016 RMK BLU
  • 110720Z 00000KT CAVOK M02/M05 Q1016 RMK BLU
  • 110650Z 00000KT 9999 FEW140 BKN170 M02/M04 Q1016 RMK BLU

Prévision TAF périmée.



MET'MAP, la Météo Aéronautique d'un coup d'oeil ! - Copyright ORBIFLY Décembre 2007 - Disclaimer

ORBIFLY MET'MAP TEAM :

Programmation & Développement : Alexandra Zaïnal
Sur une idée originale de : Baudouin d'Aumeries
Assistance à la programmation : Marc-Olivier Méhu
Soutien technique & logistique : Manuel Goepfert

Contact : metmap@orbifly.com




SOURCES & CREDITS :

   NOAA